Accueil
METAR-TAF:

METAR-TAF

Aéroports :

Aéroport de Copenhague

Copenhague, Danemark

latitude: 55-37N, longitude: 012-39E, altitude: 5 m

Observation

Le bulletin a été fait il y a 14 minutes, à 17:20 UTC
Vent 17 kt de est
Température 5°C
Humidité 75%
Pression 1024 hPa
Visibilité 10 km ou plus
Nuages épars à une hauteur de 3200 ft

METAR: EKCH 201720Z 09017KT 9999 SCT032 05/01 Q1024 NOSIG

Heure: 18:34 (17:34 UTC)

Prévision

Le bulletin a été fait il y a 6 heures et 29 minutes, à 11:05 UTC
Prévision valable du 20 à 12 UTC au 21 à 12 UTC
Vent 15 kt de est
Visibilité 10 km ou plus
Nuages fragmentés à une hauteur de 2000 ft
Temporairement
du 20 à 12 UTC au 20 à 15 UTC
Nuages fragmentés à une hauteur de 1200 ft, Cumulus congestus.

TAF: EKCH 201105Z 2012/2112 08015KT 9999 BKN020 TEMPO 2012/2015 BKN012TCU

Observations et prévisions météorologiques de plus de 4000 aéroports (messages METAR et TAF).

Les stations disponibles sont représentées par des disques jaunes et rouges sur la carte.

Passer la souris dessus pour voir le nom de la station.

Cliquer dessus pour voir les observations et prévisions météorologiques.

Pour changer de carte: cliquez sur les boutons verts avec une croix noire pour zoomer, sur le bouton vert avec un tiret pour effectuer un zoom arrière, ou sur les flèches vertes pour les cartes adjacentes.


METAR-TAF: